sensor_id;sensor_type;location;lat;lon;timestamp;temperature;humidity
53264;DHT22;39153;52.680;6.172;2023-11-19T00:02:20;12.10;99.90
53264;DHT22;39153;52.680;6.172;2023-11-19T00:04:46;12.20;99.90
53264;DHT22;39153;52.680;6.172;2023-11-19T00:07:11;12.00;99.90
53264;DHT22;39153;52.680;6.172;2023-11-19T00:09:39;12.40;99.90
53264;DHT22;39153;52.680;6.172;2023-11-19T00:12:06;12.20;99.90
53264;DHT22;39153;52.680;6.172;2023-11-19T00:14:33;12.50;99.90
53264;DHT22;39153;52.680;6.172;2023-11-19T00:16:58;12.30;99.90
53264;DHT22;39153;52.680;6.172;2023-11-19T00:19:24;12.50;99.90
53264;DHT22;39153;52.680;6.172;2023-11-19T00:21:52;12.20;99.90
53264;DHT22;39153;52.680;6.172;2023-11-19T00:24:17;12.30;99.90
53264;DHT22;39153;52.680;6.172;2023-11-19T00:26:44;12.50;99.90
53264;DHT22;39153;52.680;6.172;2023-11-19T00:29:09;12.20;99.90
53264;DHT22;39153;52.680;6.172;2023-11-19T00:31:36;12.30;99.90
53264;DHT22;39153;52.680;6.172;2023-11-19T00:34:02;12.30;99.90
53264;DHT22;39153;52.680;6.172;2023-11-19T00:36:28;12.30;99.90
53264;DHT22;39153;52.680;6.172;2023-11-19T00:38:54;12.60;99.90
53264;DHT22;39153;52.680;6.172;2023-11-19T00:41:20;12.70;99.90
53264;DHT22;39153;52.680;6.172;2023-11-19T00:43:46;12.30;99.90
53264;DHT22;39153;52.680;6.172;2023-11-19T00:46:12;12.50;99.90
53264;DHT22;39153;52.680;6.172;2023-11-19T00:48:39;12.30;99.90
53264;DHT22;39153;52.680;6.172;2023-11-19T00:51:05;12.40;99.90
53264;DHT22;39153;52.680;6.172;2023-11-19T00:53:31;12.30;99.90
53264;DHT22;39153;52.680;6.172;2023-11-19T00:55:59;12.40;99.90
53264;DHT22;39153;52.680;6.172;2023-11-19T00:58:25;12.20;99.90
53264;DHT22;39153;52.680;6.172;2023-11-19T01:00:51;12.40;99.90
53264;DHT22;39153;52.680;6.172;2023-11-19T01:03:16;12.40;99.90
53264;DHT22;39153;52.680;6.172;2023-11-19T01:05:42;12.60;99.90
53264;DHT22;39153;52.680;6.172;2023-11-19T01:08:09;12.60;99.90
53264;DHT22;39153;52.680;6.172;2023-11-19T01:10:36;12.30;99.90
53264;DHT22;39153;52.680;6.172;2023-11-19T01:13:03;12.60;99.90
53264;DHT22;39153;52.680;6.172;2023-11-19T01:15:31;12.40;99.90
53264;DHT22;39153;52.680;6.172;2023-11-19T01:17:57;12.60;99.90
53264;DHT22;39153;52.680;6.172;2023-11-19T01:20:23;12.60;99.90
53264;DHT22;39153;52.680;6.172;2023-11-19T01:22:50;12.70;99.90
53264;DHT22;39153;52.680;6.172;2023-11-19T01:25:15;12.20;99.90
53264;DHT22;39153;52.680;6.172;2023-11-19T01:27:41;12.60;99.90
53264;DHT22;39153;52.680;6.172;2023-11-19T01:30:07;12.30;99.90
53264;DHT22;39153;52.680;6.172;2023-11-19T01:32:35;12.30;99.90
53264;DHT22;39153;52.680;6.172;2023-11-19T01:35:03;12.70;99.90
53264;DHT22;39153;52.680;6.172;2023-11-19T01:37:29;12.60;99.90
53264;DHT22;39153;52.680;6.172;2023-11-19T01:39:57;12.20;99.90
53264;DHT22;39153;52.680;6.172;2023-11-19T01:42:23;12.60;99.90
53264;DHT22;39153;52.680;6.172;2023-11-19T01:45:00;12.40;99.90
53264;DHT22;39153;52.680;6.172;2023-11-19T01:47:30;12.30;99.90
53264;DHT22;39153;52.680;6.172;2023-11-19T01:49:57;12.40;99.90
53264;DHT22;39153;52.680;6.172;2023-11-19T01:52:23;12.40;99.90
53264;DHT22;39153;52.680;6.172;2023-11-19T01:54:50;12.70;99.90
53264;DHT22;39153;52.680;6.172;2023-11-19T01:57:17;12.80;99.90
53264;DHT22;39153;52.680;6.172;2023-11-19T01:59:43;12.80;99.90
53264;DHT22;39153;52.680;6.172;2023-11-19T02:02:09;12.30;99.90
53264;DHT22;39153;52.680;6.172;2023-11-19T02:04:35;12.40;99.90
53264;DHT22;39153;52.680;6.172;2023-11-19T02:07:00;12.90;99.90
53264;DHT22;39153;52.680;6.172;2023-11-19T02:09:26;12.90;99.90
53264;DHT22;39153;52.680;6.172;2023-11-19T02:11:53;12.80;99.90
53264;DHT22;39153;52.680;6.172;2023-11-19T02:14:23;12.30;99.90
53264;DHT22;39153;52.680;6.172;2023-11-19T02:16:51;12.50;99.90
53264;DHT22;39153;52.680;6.172;2023-11-19T02:19:19;12.90;99.90
53264;DHT22;39153;52.680;6.172;2023-11-19T02:21:45;12.80;99.90
53264;DHT22;39153;52.680;6.172;2023-11-19T02:24:12;12.60;99.90
53264;DHT22;39153;52.680;6.172;2023-11-19T02:26:44;12.60;99.90
53264;DHT22;39153;52.680;6.172;2023-11-19T02:29:11;12.40;99.90
53264;DHT22;39153;52.680;6.172;2023-11-19T02:31:37;12.80;99.90
53264;DHT22;39153;52.680;6.172;2023-11-19T02:34:02;12.70;99.90
53264;DHT22;39153;52.680;6.172;2023-11-19T02:36:28;12.30;99.90
53264;DHT22;39153;52.680;6.172;2023-11-19T02:38:54;12.20;99.90
53264;DHT22;39153;52.680;6.172;2023-11-19T02:41:20;12.20;99.90
53264;DHT22;39153;52.680;6.172;2023-11-19T02:43:46;12.30;99.90
53264;DHT22;39153;52.680;6.172;2023-11-19T02:46:14;12.50;99.90
53264;DHT22;39153;52.680;6.172;2023-11-19T02:48:39;12.20;99.90
53264;DHT22;39153;52.680;6.172;2023-11-19T02:51:06;12.20;99.90
53264;DHT22;39153;52.680;6.172;2023-11-19T02:53:35;12.20;99.90
53264;DHT22;39153;52.680;6.172;2023-11-19T02:56:01;12.70;99.90
53264;DHT22;39153;52.680;6.172;2023-11-19T02:58:31;12.80;99.90
53264;DHT22;39153;52.680;6.172;2023-11-19T03:00:57;12.60;99.90
53264;DHT22;39153;52.680;6.172;2023-11-19T03:03:25;12.60;99.90
53264;DHT22;39153;52.680;6.172;2023-11-19T03:05:54;12.40;99.90
53264;DHT22;39153;52.680;6.172;2023-11-19T03:08:20;12.40;99.90
53264;DHT22;39153;52.680;6.172;2023-11-19T03:10:46;12.40;99.90
53264;DHT22;39153;52.680;6.172;2023-11-19T03:13:13;13.00;99.90
53264;DHT22;39153;52.680;6.172;2023-11-19T03:15:40;12.60;99.90
53264;DHT22;39153;52.680;6.172;2023-11-19T03:18:05;12.50;99.90
53264;DHT22;39153;52.680;6.172;2023-11-19T03:20:31;12.50;99.90
53264;DHT22;39153;52.680;6.172;2023-11-19T03:22:57;12.40;99.90
53264;DHT22;39153;52.680;6.172;2023-11-19T03:25:25;12.40;99.90
53264;DHT22;39153;52.680;6.172;2023-11-19T03:27:52;13.00;99.90
53264;DHT22;39153;52.680;6.172;2023-11-19T03:30:18;12.40;99.90
53264;DHT22;39153;52.680;6.172;2023-11-19T03:32:46;13.10;99.90
53264;DHT22;39153;52.680;6.172;2023-11-19T03:35:12;12.70;99.90
53264;DHT22;39153;52.680;6.172;2023-11-19T03:37:37;12.50;99.90
53264;DHT22;39153;52.680;6.172;2023-11-19T03:40:05;12.60;99.90
53264;DHT22;39153;52.680;6.172;2023-11-19T03:42:31;12.90;99.90
53264;DHT22;39153;52.680;6.172;2023-11-19T03:44:57;13.00;99.90
53264;DHT22;39153;52.680;6.172;2023-11-19T03:47:23;12.40;99.90
53264;DHT22;39153;52.680;6.172;2023-11-19T03:49:49;12.80;99.90
53264;DHT22;39153;52.680;6.172;2023-11-19T03:52:16;12.40;99.90
53264;DHT22;39153;52.680;6.172;2023-11-19T03:54:42;13.00;99.90
53264;DHT22;39153;52.680;6.172;2023-11-19T03:57:08;12.80;99.90
53264;DHT22;39153;52.680;6.172;2023-11-19T03:59:35;12.50;99.90
53264;DHT22;39153;52.680;6.172;2023-11-19T04:02:01;12.20;99.90
53264;DHT22;39153;52.680;6.172;2023-11-19T04:04:28;12.40;99.90
53264;DHT22;39153;52.680;6.172;2023-11-19T04:06:55;12.80;99.90
53264;DHT22;39153;52.680;6.172;2023-11-19T04:09:21;12.40;99.90
53264;DHT22;39153;52.680;6.172;2023-11-19T04:11:47;12.70;99.90
53264;DHT22;39153;52.680;6.172;2023-11-19T04:14:13;12.60;99.90
53264;DHT22;39153;52.680;6.172;2023-11-19T04:16:40;12.00;99.90
53264;DHT22;39153;52.680;6.172;2023-11-19T04:19:06;11.90;99.90
53264;DHT22;39153;52.680;6.172;2023-11-19T04:21:32;12.50;99.90
53264;DHT22;39153;52.680;6.172;2023-11-19T04:23:58;11.90;99.90
53264;DHT22;39153;52.680;6.172;2023-11-19T04:26:24;12.30;99.90
53264;DHT22;39153;52.680;6.172;2023-11-19T04:28:50;11.70;99.90
53264;DHT22;39153;52.680;6.172;2023-11-19T04:31:16;12.00;99.90
53264;DHT22;39153;52.680;6.172;2023-11-19T04:33:42;12.40;99.90
53264;DHT22;39153;52.680;6.172;2023-11-19T04:36:12;12.10;99.90
53264;DHT22;39153;52.680;6.172;2023-11-19T04:38:39;12.00;99.90
53264;DHT22;39153;52.680;6.172;2023-11-19T04:41:05;12.50;99.90
53264;DHT22;39153;52.680;6.172;2023-11-19T04:43:32;12.50;99.90
53264;DHT22;39153;52.680;6.172;2023-11-19T04:45:58;12.10;99.90
53264;DHT22;39153;52.680;6.172;2023-11-19T04:48:24;12.10;99.90
53264;DHT22;39153;52.680;6.172;2023-11-19T04:50:49;12.30;99.90
53264;DHT22;39153;52.680;6.172;2023-11-19T04:53:18;12.50;99.90
53264;DHT22;39153;52.680;6.172;2023-11-19T04:55:43;12.60;99.90
53264;DHT22;39153;52.680;6.172;2023-11-19T04:58:09;12.00;99.90
53264;DHT22;39153;52.680;6.172;2023-11-19T05:00:34;12.60;99.90
53264;DHT22;39153;52.680;6.172;2023-11-19T05:03:00;12.40;99.90
53264;DHT22;39153;52.680;6.172;2023-11-19T05:05:26;12.10;99.90
53264;DHT22;39153;52.680;6.172;2023-11-19T05:07:52;12.60;99.90
53264;DHT22;39153;52.680;6.172;2023-11-19T05:10:18;12.10;99.90
53264;DHT22;39153;52.680;6.172;2023-11-19T05:12:44;12.60;99.90
53264;DHT22;39153;52.680;6.172;2023-11-19T05:15:10;12.40;99.90
53264;DHT22;39153;52.680;6.172;2023-11-19T05:17:37;12.60;99.90
53264;DHT22;39153;52.680;6.172;2023-11-19T05:20:04;12.50;99.90
53264;DHT22;39153;52.680;6.172;2023-11-19T05:22:30;12.20;99.90
53264;DHT22;39153;52.680;6.172;2023-11-19T05:24:56;12.50;99.90
53264;DHT22;39153;52.680;6.172;2023-11-19T05:27:22;12.50;99.90
53264;DHT22;39153;52.680;6.172;2023-11-19T05:29:49;12.20;99.90
53264;DHT22;39153;52.680;6.172;2023-11-19T05:32:14;12.20;99.90
53264;DHT22;39153;52.680;6.172;2023-11-19T05:34:40;12.50;99.90
53264;DHT22;39153;52.680;6.172;2023-11-19T05:37:06;12.30;99.90
53264;DHT22;39153;52.680;6.172;2023-11-19T05:39:32;12.60;99.90
53264;DHT22;39153;52.680;6.172;2023-11-19T05:41:57;12.20;99.90
53264;DHT22;39153;52.680;6.172;2023-11-19T05:44:23;12.20;99.90
53264;DHT22;39153;52.680;6.172;2023-11-19T05:46:49;12.10;99.90
53264;DHT22;39153;52.680;6.172;2023-11-19T05:49:14;12.10;99.90
53264;DHT22;39153;52.680;6.172;2023-11-19T05:51:40;12.30;99.90
53264;DHT22;39153;52.680;6.172;2023-11-19T05:54:08;12.00;99.90
53264;DHT22;39153;52.680;6.172;2023-11-19T05:56:34;12.10;99.90
53264;DHT22;39153;52.680;6.172;2023-11-19T05:59:00;12.20;99.90
53264;DHT22;39153;52.680;6.172;2023-11-19T06:01:35;11.90;99.90
53264;DHT22;39153;52.680;6.172;2023-11-19T06:04:02;11.80;99.90
53264;DHT22;39153;52.680;6.172;2023-11-19T06:06:28;11.90;99.90
53264;DHT22;39153;52.680;6.172;2023-11-19T06:08:54;11.70;99.90
53264;DHT22;39153;52.680;6.172;2023-11-19T06:11:20;11.80;99.90
53264;DHT22;39153;52.680;6.172;2023-11-19T06:13:46;12.10;99.90
53264;DHT22;39153;52.680;6.172;2023-11-19T06:16:14;12.10;99.90
53264;DHT22;39153;52.680;6.172;2023-11-19T06:18:39;11.70;99.90
53264;DHT22;39153;52.680;6.172;2023-11-19T06:21:06;12.10;99.90
53264;DHT22;39153;52.680;6.172;2023-11-19T06:23:32;12.10;99.90
53264;DHT22;39153;52.680;6.172;2023-11-19T06:25:58;12.10;99.90
53264;DHT22;39153;52.680;6.172;2023-11-19T06:28:24;11.90;99.90
53264;DHT22;39153;52.680;6.172;2023-11-19T06:30:50;12.00;99.90
53264;DHT22;39153;52.680;6.172;2023-11-19T06:33:16;12.10;99.90
53264;DHT22;39153;52.680;6.172;2023-11-19T06:35:41;12.10;99.90
53264;DHT22;39153;52.680;6.172;2023-11-19T06:38:07;12.20;99.90
53264;DHT22;39153;52.680;6.172;2023-11-19T06:40:33;11.80;99.90
53264;DHT22;39153;52.680;6.172;2023-11-19T06:43:00;12.20;99.90
53264;DHT22;39153;52.680;6.172;2023-11-19T06:45:26;12.00;99.90
53264;DHT22;39153;52.680;6.172;2023-11-19T06:47:52;12.20;99.90
53264;DHT22;39153;52.680;6.172;2023-11-19T06:50:18;12.20;99.90
53264;DHT22;39153;52.680;6.172;2023-11-19T06:52:44;12.00;99.90
53264;DHT22;39153;52.680;6.172;2023-11-19T06:55:10;12.20;99.90
53264;DHT22;39153;52.680;6.172;2023-11-19T06:57:36;12.00;99.90
53264;DHT22;39153;52.680;6.172;2023-11-19T07:00:03;11.80;99.90
53264;DHT22;39153;52.680;6.172;2023-11-19T07:02:31;12.00;99.90
53264;DHT22;39153;52.680;6.172;2023-11-19T07:04:57;12.20;99.90
53264;DHT22;39153;52.680;6.172;2023-11-19T07:07:23;12.10;99.90
53264;DHT22;39153;52.680;6.172;2023-11-19T07:09:48;12.10;99.90
53264;DHT22;39153;52.680;6.172;2023-11-19T07:12:14;12.00;99.90
53264;DHT22;39153;52.680;6.172;2023-11-19T07:14:41;12.00;99.90
53264;DHT22;39153;52.680;6.172;2023-11-19T07:17:07;11.80;99.90
53264;DHT22;39153;52.680;6.172;2023-11-19T07:19:34;11.70;99.90
53264;DHT22;39153;52.680;6.172;2023-11-19T07:22:02;11.70;99.90
53264;DHT22;39153;52.680;6.172;2023-11-19T07:24:27;11.60;99.90
53264;DHT22;39153;52.680;6.172;2023-11-19T07:26:54;11.90;99.90
53264;DHT22;39153;52.680;6.172;2023-11-19T07:29:20;11.70;99.90
53264;DHT22;39153;52.680;6.172;2023-11-19T07:31:48;11.80;99.90
53264;DHT22;39153;52.680;6.172;2023-11-19T07:34:14;11.70;99.90
53264;DHT22;39153;52.680;6.172;2023-11-19T07:36:40;11.70;99.90
53264;DHT22;39153;52.680;6.172;2023-11-19T07:39:06;11.70;99.90
53264;DHT22;39153;52.680;6.172;2023-11-19T07:41:32;11.80;99.90
53264;DHT22;39153;52.680;6.172;2023-11-19T07:43:59;11.50;99.90
53264;DHT22;39153;52.680;6.172;2023-11-19T07:46:25;11.50;99.90
53264;DHT22;39153;52.680;6.172;2023-11-19T07:48:51;11.60;99.90
53264;DHT22;39153;52.680;6.172;2023-11-19T07:51:17;11.90;99.90
53264;DHT22;39153;52.680;6.172;2023-11-19T07:53:43;11.90;99.90
53264;DHT22;39153;52.680;6.172;2023-11-19T07:56:09;11.70;99.90
53264;DHT22;39153;52.680;6.172;2023-11-19T07:58:35;11.70;99.90
53264;DHT22;39153;52.680;6.172;2023-11-19T08:01:02;11.90;99.90
53264;DHT22;39153;52.680;6.172;2023-11-19T08:03:28;11.80;99.90
53264;DHT22;39153;52.680;6.172;2023-11-19T08:05:57;12.00;99.90
53264;DHT22;39153;52.680;6.172;2023-11-19T08:08:23;12.00;99.90
53264;DHT22;39153;52.680;6.172;2023-11-19T08:10:49;11.90;99.90
53264;DHT22;39153;52.680;6.172;2023-11-19T08:13:19;11.90;99.90
53264;DHT22;39153;52.680;6.172;2023-11-19T08:15:45;12.10;99.90
53264;DHT22;39153;52.680;6.172;2023-11-19T08:18:12;11.80;99.90
53264;DHT22;39153;52.680;6.172;2023-11-19T08:20:38;11.70;99.90
53264;DHT22;39153;52.680;6.172;2023-11-19T08:23:03;11.70;99.90
53264;DHT22;39153;52.680;6.172;2023-11-19T08:25:30;11.70;99.90
53264;DHT22;39153;52.680;6.172;2023-11-19T08:27:56;12.00;99.90
53264;DHT22;39153;52.680;6.172;2023-11-19T08:30:21;11.80;99.90
53264;DHT22;39153;52.680;6.172;2023-11-19T08:32:47;12.10;99.90
53264;DHT22;39153;52.680;6.172;2023-11-19T08:35:13;12.10;99.90
53264;DHT22;39153;52.680;6.172;2023-11-19T08:37:38;11.90;99.90
53264;DHT22;39153;52.680;6.172;2023-11-19T08:40:04;12.20;99.90
53264;DHT22;39153;52.680;6.172;2023-11-19T08:42:31;12.20;99.90
53264;DHT22;39153;52.680;6.172;2023-11-19T08:44:56;12.20;99.90
53264;DHT22;39153;52.680;6.172;2023-11-19T08:47:22;12.20;99.90
53264;DHT22;39153;52.680;6.172;2023-11-19T08:49:51;12.00;99.90
53264;DHT22;39153;52.680;6.172;2023-11-19T08:52:17;12.10;99.90
53264;DHT22;39153;52.680;6.172;2023-11-19T08:54:43;12.40;99.90
53264;DHT22;39153;52.680;6.172;2023-11-19T08:57:09;12.30;99.90
53264;DHT22;39153;52.680;6.172;2023-11-19T08:59:35;12.20;99.90
53264;DHT22;39153;52.680;6.172;2023-11-19T09:02:04;12.10;99.90
53264;DHT22;39153;52.680;6.172;2023-11-19T09:04:29;12.50;99.90
53264;DHT22;39153;52.680;6.172;2023-11-19T09:06:57;12.40;99.90
53264;DHT22;39153;52.680;6.172;2023-11-19T09:09:23;12.70;99.90
53264;DHT22;39153;52.680;6.172;2023-11-19T09:11:49;12.60;99.90
53264;DHT22;39153;52.680;6.172;2023-11-19T09:14:14;12.50;99.90
53264;DHT22;39153;52.680;6.172;2023-11-19T09:16:41;12.80;99.90
53264;DHT22;39153;52.680;6.172;2023-11-19T09:19:06;12.60;99.90
53264;DHT22;39153;52.680;6.172;2023-11-19T09:21:32;12.70;99.90
53264;DHT22;39153;52.680;6.172;2023-11-19T09:24:00;12.80;99.90
53264;DHT22;39153;52.680;6.172;2023-11-19T09:26:25;12.80;99.90
53264;DHT22;39153;52.680;6.172;2023-11-19T09:28:51;12.70;99.90
53264;DHT22;39153;52.680;6.172;2023-11-19T09:31:17;12.50;99.90
53264;DHT22;39153;52.680;6.172;2023-11-19T09:33:44;12.70;99.90
53264;DHT22;39153;52.680;6.172;2023-11-19T09:36:12;12.70;99.90
53264;DHT22;39153;52.680;6.172;2023-11-19T09:38:40;12.70;99.90
53264;DHT22;39153;52.680;6.172;2023-11-19T09:41:06;12.40;99.90
53264;DHT22;39153;52.680;6.172;2023-11-19T09:43:35;12.60;99.90
53264;DHT22;39153;52.680;6.172;2023-11-19T09:46:05;12.40;99.90
53264;DHT22;39153;52.680;6.172;2023-11-19T09:48:35;12.50;99.90
53264;DHT22;39153;52.680;6.172;2023-11-19T09:51:03;12.60;99.90
53264;DHT22;39153;52.680;6.172;2023-11-19T09:53:30;12.50;99.90
53264;DHT22;39153;52.680;6.172;2023-11-19T09:55:56;12.40;99.90
53264;DHT22;39153;52.680;6.172;2023-11-19T09:58:22;12.50;99.90
53264;DHT22;39153;52.680;6.172;2023-11-19T10:00:49;12.30;99.90
53264;DHT22;39153;52.680;6.172;2023-11-19T10:03:15;12.40;99.90
53264;DHT22;39153;52.680;6.172;2023-11-19T10:05:41;12.40;99.90
53264;DHT22;39153;52.680;6.172;2023-11-19T10:08:07;12.50;99.90
53264;DHT22;39153;52.680;6.172;2023-11-19T10:10:34;12.70;99.90
53264;DHT22;39153;52.680;6.172;2023-11-19T10:13:00;12.50;99.90
53264;DHT22;39153;52.680;6.172;2023-11-19T10:15:26;12.50;99.90
53264;DHT22;39153;52.680;6.172;2023-11-19T10:17:57;12.50;99.90
53264;DHT22;39153;52.680;6.172;2023-11-19T10:20:23;12.50;99.90
53264;DHT22;39153;52.680;6.172;2023-11-19T10:22:53;12.70;99.90
53264;DHT22;39153;52.680;6.172;2023-11-19T10:25:24;12.40;99.90
53264;DHT22;39153;52.680;6.172;2023-11-19T10:27:54;12.50;99.90
53264;DHT22;39153;52.680;6.172;2023-11-19T10:30:27;12.80;99.90
53264;DHT22;39153;52.680;6.172;2023-11-19T10:33:07;12.60;99.90
53264;DHT22;39153;52.680;6.172;2023-11-19T10:35:35;12.60;99.90
53264;DHT22;39153;52.680;6.172;2023-11-19T10:38:02;12.40;99.90
53264;DHT22;39153;52.680;6.172;2023-11-19T10:40:39;12.70;99.90
53264;DHT22;39153;52.680;6.172;2023-11-19T10:43:08;12.70;99.90
53264;DHT22;39153;52.680;6.172;2023-11-19T10:45:38;12.60;99.90
53264;DHT22;39153;52.680;6.172;2023-11-19T10:48:05;12.70;99.90
53264;DHT22;39153;52.680;6.172;2023-11-19T10:50:36;12.80;99.90
53264;DHT22;39153;52.680;6.172;2023-11-19T10:53:03;12.70;99.90
53264;DHT22;39153;52.680;6.172;2023-11-19T10:55:33;12.60;99.90
53264;DHT22;39153;52.680;6.172;2023-11-19T11:00:52;12.70;99.90
53264;DHT22;39153;52.680;6.172;2023-11-19T11:03:21;12.60;99.90
53264;DHT22;39153;52.680;6.172;2023-11-19T11:05:50;12.50;99.90
53264;DHT22;39153;52.680;6.172;2023-11-19T11:08:16;12.50;99.90
53264;DHT22;39153;52.680;6.172;2023-11-19T11:10:47;12.50;99.90
53264;DHT22;39153;52.680;6.172;2023-11-19T11:13:14;12.20;99.90
53264;DHT22;39153;52.680;6.172;2023-11-19T11:15:40;12.50;99.90
53264;DHT22;39153;52.680;6.172;2023-11-19T11:18:08;12.10;99.90
53264;DHT22;39153;52.680;6.172;2023-11-19T11:20:35;12.50;99.90
53264;DHT22;39153;52.680;6.172;2023-11-19T11:25:56;12.40;99.90
53264;DHT22;39153;52.680;6.172;2023-11-19T11:36:20;12.10;99.90
53264;DHT22;39153;52.680;6.172;2023-11-19T11:38:49;12.50;99.90
53264;DHT22;39153;52.680;6.172;2023-11-19T11:41:20;11.90;99.90
53264;DHT22;39153;52.680;6.172;2023-11-19T11:43:51;11.90;99.90
53264;DHT22;39153;52.680;6.172;2023-11-19T11:49:07;12.60;99.90
53264;DHT22;39153;52.680;6.172;2023-11-19T11:51:59;11.90;99.90
53264;DHT22;39153;52.680;6.172;2023-11-19T11:54:27;12.30;99.90
53264;DHT22;39153;52.680;6.172;2023-11-19T11:59:47;12.60;99.90
53264;DHT22;39153;52.680;6.172;2023-11-19T12:02:18;12.60;99.90
53264;DHT22;39153;52.680;6.172;2023-11-19T12:04:52;13.00;99.90
53264;DHT22;39153;52.680;6.172;2023-11-19T12:07:23;12.70;99.90
53264;DHT22;39153;52.680;6.172;2023-11-19T12:10:09;12.80;99.90
53264;DHT22;39153;52.680;6.172;2023-11-19T12:12:37;12.80;99.90
53264;DHT22;39153;52.680;6.172;2023-11-19T12:15:08;13.20;99.90
53264;DHT22;39153;52.680;6.172;2023-11-19T12:17:41;13.10;99.90
53264;DHT22;39153;52.680;6.172;2023-11-19T12:20:10;12.80;99.90
53264;DHT22;39153;52.680;6.172;2023-11-19T12:22:38;13.10;99.90
53264;DHT22;39153;52.680;6.172;2023-11-19T12:25:05;13.00;99.90
53264;DHT22;39153;52.680;6.172;2023-11-19T12:27:33;12.70;99.90
53264;DHT22;39153;52.680;6.172;2023-11-19T12:30:04;12.80;99.90
53264;DHT22;39153;52.680;6.172;2023-11-19T12:32:44;12.80;99.90
53264;DHT22;39153;52.680;6.172;2023-11-19T12:35:11;12.80;99.90
53264;DHT22;39153;52.680;6.172;2023-11-19T12:37:44;12.70;99.90
53264;DHT22;39153;52.680;6.172;2023-11-19T12:42:41;12.60;99.90
53264;DHT22;39153;52.680;6.172;2023-11-19T12:45:07;12.70;99.90
53264;DHT22;39153;52.680;6.172;2023-11-19T12:47:37;12.80;99.90
53264;DHT22;39153;52.680;6.172;2023-11-19T12:50:03;12.60;99.90
53264;DHT22;39153;52.680;6.172;2023-11-19T12:52:30;12.80;99.90
53264;DHT22;39153;52.680;6.172;2023-11-19T12:54:56;12.90;99.90
53264;DHT22;39153;52.680;6.172;2023-11-19T12:57:36;12.80;99.90
53264;DHT22;39153;52.680;6.172;2023-11-19T13:00:02;12.90;99.90
53264;DHT22;39153;52.680;6.172;2023-11-19T13:02:51;12.80;99.90
53264;DHT22;39153;52.680;6.172;2023-11-19T13:10:29;12.70;99.90
53264;DHT22;39153;52.680;6.172;2023-11-19T13:15:31;12.60;99.90
53264;DHT22;39153;52.680;6.172;2023-11-19T13:17:57;12.80;99.90
53264;DHT22;39153;52.680;6.172;2023-11-19T13:20:23;12.60;99.90
53264;DHT22;39153;52.680;6.172;2023-11-19T13:22:56;12.60;99.90
53264;DHT22;39153;52.680;6.172;2023-11-19T13:25:22;12.30;99.90
53264;DHT22;39153;52.680;6.172;2023-11-19T13:27:47;12.10;99.90
53264;DHT22;39153;52.680;6.172;2023-11-19T13:30:13;12.40;99.90
53264;DHT22;39153;52.680;6.172;2023-11-19T13:32:39;12.10;99.90
53264;DHT22;39153;52.680;6.172;2023-11-19T13:35:05;12.40;99.90
53264;DHT22;39153;52.680;6.172;2023-11-19T13:37:34;12.20;99.90
53264;DHT22;39153;52.680;6.172;2023-11-19T13:40:00;12.40;99.90
53264;DHT22;39153;52.680;6.172;2023-11-19T13:42:25;12.40;99.90
53264;DHT22;39153;52.680;6.172;2023-11-19T13:44:51;12.10;99.90
53264;DHT22;39153;52.680;6.172;2023-11-19T13:47:17;12.20;99.90
53264;DHT22;39153;52.680;6.172;2023-11-19T13:49:44;12.50;99.90
53264;DHT22;39153;52.680;6.172;2023-11-19T13:52:10;12.50;99.90
53264;DHT22;39153;52.680;6.172;2023-11-19T13:54:37;12.30;99.90
53264;DHT22;39153;52.680;6.172;2023-11-19T13:57:03;12.50;99.90
53264;DHT22;39153;52.680;6.172;2023-11-19T13:59:31;12.20;99.90
53264;DHT22;39153;52.680;6.172;2023-11-19T14:01:59;12.20;99.90
53264;DHT22;39153;52.680;6.172;2023-11-19T14:04:25;12.50;99.90
53264;DHT22;39153;52.680;6.172;2023-11-19T14:06:51;12.20;99.90
53264;DHT22;39153;52.680;6.172;2023-11-19T14:09:17;12.30;99.90
53264;DHT22;39153;52.680;6.172;2023-11-19T14:11:43;12.60;99.90
53264;DHT22;39153;52.680;6.172;2023-11-19T14:14:09;12.50;99.90
53264;DHT22;39153;52.680;6.172;2023-11-19T14:16:35;12.50;99.90
53264;DHT22;39153;52.680;6.172;2023-11-19T14:19:00;12.10;99.90
53264;DHT22;39153;52.680;6.172;2023-11-19T14:21:26;12.20;99.90
53264;DHT22;39153;52.680;6.172;2023-11-19T14:23:52;12.30;99.90
53264;DHT22;39153;52.680;6.172;2023-11-19T14:26:18;12.20;99.90
53264;DHT22;39153;52.680;6.172;2023-11-19T14:28:44;12.30;99.90
53264;DHT22;39153;52.680;6.172;2023-11-19T14:31:10;12.00;99.90
53264;DHT22;39153;52.680;6.172;2023-11-19T14:33:35;12.30;99.90
53264;DHT22;39153;52.680;6.172;2023-11-19T14:36:04;12.30;99.90
53264;DHT22;39153;52.680;6.172;2023-11-19T14:38:30;12.30;99.90
53264;DHT22;39153;52.680;6.172;2023-11-19T14:40:56;12.10;99.90
53264;DHT22;39153;52.680;6.172;2023-11-19T14:43:21;11.90;99.90
53264;DHT22;39153;52.680;6.172;2023-11-19T14:45:47;11.80;99.90
53264;DHT22;39153;52.680;6.172;2023-11-19T14:48:13;11.80;99.90
53264;DHT22;39153;52.680;6.172;2023-11-19T14:50:39;11.90;99.90
53264;DHT22;39153;52.680;6.172;2023-11-19T14:53:05;12.10;99.90
53264;DHT22;39153;52.680;6.172;2023-11-19T14:55:31;12.10;99.90
53264;DHT22;39153;52.680;6.172;2023-11-19T14:57:57;12.20;99.90
53264;DHT22;39153;52.680;6.172;2023-11-19T15:00:23;12.20;99.90
53264;DHT22;39153;52.680;6.172;2023-11-19T15:02:48;12.10;99.90
53264;DHT22;39153;52.680;6.172;2023-11-19T15:05:14;11.90;99.90
53264;DHT22;39153;52.680;6.172;2023-11-19T15:07:40;11.90;99.90
53264;DHT22;39153;52.680;6.172;2023-11-19T15:10:06;12.30;99.90
53264;DHT22;39153;52.680;6.172;2023-11-19T15:12:38;12.20;99.90
53264;DHT22;39153;52.680;6.172;2023-11-19T15:15:08;11.90;99.90
53264;DHT22;39153;52.680;6.172;2023-11-19T15:17:40;11.90;99.90
53264;DHT22;39153;52.680;6.172;2023-11-19T15:20:06;11.90;99.90
53264;DHT22;39153;52.680;6.172;2023-11-19T15:22:32;12.20;99.90
53264;DHT22;39153;52.680;6.172;2023-11-19T15:24:58;12.00;99.90
53264;DHT22;39153;52.680;6.172;2023-11-19T15:27:23;12.30;99.90
53264;DHT22;39153;52.680;6.172;2023-11-19T15:29:49;11.90;99.90
53264;DHT22;39153;52.680;6.172;2023-11-19T15:32:15;12.30;99.90
53264;DHT22;39153;52.680;6.172;2023-11-19T15:34:41;12.30;99.90
53264;DHT22;39153;52.680;6.172;2023-11-19T15:37:10;12.30;99.90
53264;DHT22;39153;52.680;6.172;2023-11-19T15:39:38;11.90;99.90
53264;DHT22;39153;52.680;6.172;2023-11-19T15:42:04;12.00;99.90
53264;DHT22;39153;52.680;6.172;2023-11-19T15:44:30;12.00;99.90
53264;DHT22;39153;52.680;6.172;2023-11-19T15:46:55;11.80;99.90
53264;DHT22;39153;52.680;6.172;2023-11-19T15:49:21;11.90;99.90
53264;DHT22;39153;52.680;6.172;2023-11-19T15:51:47;12.10;99.90
53264;DHT22;39153;52.680;6.172;2023-11-19T15:54:12;12.20;99.90
53264;DHT22;39153;52.680;6.172;2023-11-19T15:56:38;11.70;99.90
53264;DHT22;39153;52.680;6.172;2023-11-19T15:59:04;12.00;99.90